createdAt,value
2022-10-08T00:01:13.687Z,100662.77
2022-10-08T00:03:45.182Z,100663.55
2022-10-08T00:06:13.790Z,100662.87
2022-10-08T00:08:41.840Z,100660.48
2022-10-08T00:11:11.367Z,100657.95
2022-10-08T00:13:42.204Z,100652.04
2022-10-08T00:16:21.006Z,100650.95
2022-10-08T00:18:48.148Z,100652.00
2022-10-08T00:21:35.428Z,100648.58
2022-10-08T00:24:03.252Z,100644.73
2022-10-08T00:26:31.003Z,100648.27
2022-10-08T00:28:59.294Z,100639.60
2022-10-08T00:31:28.159Z,100634.18
2022-10-08T00:33:55.997Z,100634.77
2022-10-08T00:36:23.946Z,100631.23
2022-10-08T00:39:11.757Z,100631.77
2022-10-08T00:41:38.501Z,100625.46
2022-10-08T00:44:43.668Z,100617.88
2022-10-08T00:47:18.574Z,100612.75
2022-10-08T00:49:48.450Z,100606.42
2022-10-08T00:52:15.175Z,100605.12
2022-10-08T00:54:42.825Z,100600.82
2022-10-08T00:57:09.575Z,100598.63
2022-10-08T00:59:36.501Z,100598.13
2022-10-08T01:02:04.053Z,100595.79
2022-10-08T01:04:30.721Z,100598.33
2022-10-08T01:07:18.339Z,100596.41
2022-10-08T01:10:06.947Z,100599.29
2022-10-08T01:12:40.882Z,100592.36
2022-10-08T01:15:09.161Z,100596.70
2022-10-08T01:17:41.679Z,100597.70
2022-10-08T01:20:20.703Z,100593.73
2022-10-08T01:23:13.527Z,100593.23
2022-10-08T01:25:46.184Z,100592.52
2022-10-08T01:28:22.110Z,100594.84
2022-10-08T01:30:59.508Z,100590.75
2022-10-08T01:33:33.022Z,100589.83
2022-10-08T01:35:59.670Z,100591.88
2022-10-08T01:38:27.610Z,100590.02
2022-10-08T01:40:58.293Z,100590.15
2022-10-08T01:43:27.668Z,100587.20
2022-10-08T01:45:58.213Z,100587.98
2022-10-08T01:48:28.640Z,100583.98
2022-10-08T01:51:17.872Z,100589.75
2022-10-08T01:55:16.267Z,100591.80
2022-10-08T01:57:42.997Z,100598.57
2022-10-08T02:00:11.579Z,100596.88
2022-10-08T02:02:40.964Z,100592.45
2022-10-08T02:05:07.961Z,100594.79
2022-10-08T02:07:39.364Z,100591.11
2022-10-08T02:10:07.398Z,100594.77
2022-10-08T02:12:34.329Z,100593.59
2022-10-08T02:15:00.933Z,100594.96
2022-10-08T02:17:42.588Z,100596.38
2022-10-08T02:20:17.108Z,100591.77
2022-10-08T02:22:50.072Z,100589.34
2022-10-08T02:25:22.766Z,100593.40
2022-10-08T02:28:09.817Z,100592.20
2022-10-08T02:31:14.166Z,100592.81
2022-10-08T02:33:44.508Z,100596.65
2022-10-08T02:36:11.535Z,100589.35
2022-10-08T02:38:47.191Z,100590.05
2022-10-08T02:41:13.875Z,100589.98
2022-10-08T02:43:43.566Z,100591.77
2022-10-08T02:46:21.522Z,100593.05
2022-10-08T02:48:52.460Z,100594.81
2022-10-08T02:51:19.153Z,100593.14
2022-10-08T02:53:46.047Z,100590.85
2022-10-08T02:56:20.516Z,100587.75
2022-10-08T02:58:47.206Z,100588.04
2022-10-08T03:01:34.036Z,100586.17
2022-10-08T03:04:04.595Z,100584.58
2022-10-08T03:06:31.571Z,100581.34
2022-10-08T03:08:59.539Z,100585.64
2022-10-08T03:11:26.554Z,100583.95
2022-10-08T03:13:57.474Z,100584.64
2022-10-08T03:16:26.807Z,100583.48
2022-10-08T03:18:53.651Z,100586.00
2022-10-08T03:21:20.283Z,100577.04
2022-10-08T03:23:47.178Z,100576.49
2022-10-08T03:26:17.272Z,100577.69
2022-10-08T03:28:43.977Z,100579.94
2022-10-08T03:31:10.675Z,100579.27
2022-10-08T03:33:37.340Z,100575.65
2022-10-08T03:36:04.283Z,100577.12
2022-10-08T03:38:33.231Z,100574.83
2022-10-08T03:40:59.975Z,100575.37
2022-10-08T03:43:33.246Z,100573.29
2022-10-08T03:46:00.015Z,100571.66
2022-10-08T03:48:26.707Z,100572.29
2022-10-08T03:51:01.280Z,100571.66
2022-10-08T03:53:28.559Z,100569.48
2022-10-08T03:55:55.205Z,100570.95
2022-10-08T03:58:21.886Z,100571.88
2022-10-08T04:00:58.412Z,100575.38
2022-10-08T04:03:25.850Z,100570.45
2022-10-08T04:05:52.589Z,100572.72
2022-10-08T04:08:19.240Z,100575.46
2022-10-08T04:10:45.878Z,100573.78
2022-10-08T04:13:12.575Z,100568.45
2022-10-08T04:15:39.284Z,100569.73
2022-10-08T04:18:07.217Z,100571.23
2022-10-08T04:20:34.164Z,100573.99
2022-10-08T04:23:00.825Z,100576.94
2022-10-08T04:25:27.480Z,100578.02
2022-10-08T04:27:54.176Z,100579.60
2022-10-08T04:30:20.867Z,100580.02
2022-10-08T04:32:47.729Z,100582.25
2022-10-08T04:35:14.816Z,100577.41
2022-10-08T04:37:41.422Z,100576.11
2022-10-08T04:40:08.866Z,100576.02
2022-10-08T04:42:35.591Z,100577.63
2022-10-08T04:45:02.230Z,100579.17
2022-10-08T04:47:28.910Z,100577.13
2022-10-08T04:49:55.764Z,100579.05
2022-10-08T04:52:22.321Z,100578.71
2022-10-08T04:54:48.999Z,100581.09
2022-10-08T04:57:15.683Z,100581.57
2022-10-08T05:00:05.814Z,100577.28
2022-10-08T05:02:29.181Z,100579.65
2022-10-08T05:04:55.785Z,100582.05
2022-10-08T05:07:22.536Z,100578.48
2022-10-08T05:09:49.235Z,100582.23
2022-10-08T05:12:16.003Z,100579.46
2022-10-08T05:14:42.559Z,100576.88
2022-10-08T05:17:09.239Z,100578.33
2022-10-08T05:19:35.885Z,100576.73
2022-10-08T05:22:02.551Z,100576.92
2022-10-08T05:24:29.227Z,100570.95
2022-10-08T05:26:58.796Z,100573.73
2022-10-08T05:29:26.111Z,100575.71
2022-10-08T05:31:52.921Z,100571.84
2022-10-08T05:34:19.709Z,100566.97
2022-10-08T05:36:46.405Z,100568.97
2022-10-08T05:39:13.194Z,100568.01
2022-10-08T05:41:39.790Z,100565.96
2022-10-08T05:44:06.754Z,100564.20
2022-10-08T05:46:34.266Z,100566.36
2022-10-08T05:49:01.924Z,100567.65
2022-10-08T05:51:28.698Z,100569.05
2022-10-08T05:53:55.490Z,100564.75
2022-10-08T05:56:23.296Z,100567.14
2022-10-08T05:58:50.110Z,100566.61
2022-10-08T06:01:20.294Z,100566.99
2022-10-08T06:03:53.862Z,100566.71
2022-10-08T06:06:20.836Z,100562.83
2022-10-08T06:08:47.640Z,100562.77
2022-10-08T06:11:14.202Z,100559.27
2022-10-08T06:13:40.980Z,100559.05
2022-10-08T06:16:08.453Z,100554.96
2022-10-08T06:18:36.704Z,100551.81
2022-10-08T06:21:04.571Z,100549.68
2022-10-08T06:23:31.292Z,100547.32
2022-10-08T06:26:01.121Z,100546.16
2022-10-08T06:28:27.828Z,100544.19
2022-10-08T06:30:54.417Z,100537.04
2022-10-08T06:33:21.104Z,100540.13
2022-10-08T06:35:47.712Z,100541.01
2022-10-08T06:38:14.380Z,100540.33
2022-10-08T06:40:41.041Z,100541.79
2022-10-08T06:43:09.687Z,100539.76
2022-10-08T06:45:40.054Z,100534.96
2022-10-08T06:48:06.878Z,100540.95
2022-10-08T06:50:33.514Z,100538.55
2022-10-08T06:53:00.260Z,100537.65
2022-10-08T06:55:26.869Z,100542.52
2022-10-08T06:57:53.562Z,100539.70
2022-10-08T07:00:20.319Z,100537.21
2022-10-08T07:02:47.177Z,100534.98
2022-10-08T07:05:14.213Z,100534.35
2022-10-08T07:07:40.926Z,100533.11
2022-10-08T07:10:07.826Z,100533.10
2022-10-08T07:12:34.515Z,100533.30
2022-10-08T07:15:01.131Z,100530.19
2022-10-08T07:17:28.792Z,100526.33
2022-10-08T07:19:56.200Z,100521.46
2022-10-08T07:22:23.524Z,100521.15
2022-10-08T07:24:50.485Z,100517.98
2022-10-08T07:27:18.172Z,100518.00
2022-10-08T07:29:44.890Z,100514.86
2022-10-08T07:32:11.630Z,100506.83
2022-10-08T07:34:38.260Z,100507.92
2022-10-08T07:37:04.839Z,100505.05
2022-10-08T07:39:31.664Z,100505.77
2022-10-08T07:41:58.336Z,100504.45
2022-10-08T07:44:25.009Z,100502.81
2022-10-08T07:46:53.381Z,100499.41
2022-10-08T07:49:20.720Z,100498.13
2022-10-08T07:51:48.113Z,100491.59
2022-10-08T07:54:16.382Z,100494.30
2022-10-08T07:56:43.030Z,100495.89
2022-10-08T07:59:09.705Z,100490.15
2022-10-08T08:01:36.489Z,100486.80
2022-10-08T08:04:05.763Z,100484.77
2022-10-08T08:06:33.032Z,100481.84
2022-10-08T08:09:00.267Z,100480.75
2022-10-08T08:11:26.974Z,100475.14
2022-10-08T08:13:53.629Z,100470.65
2022-10-08T08:16:27.885Z,100474.01
2022-10-08T08:18:59.064Z,100470.16
2022-10-08T08:21:27.582Z,100469.55
2022-10-08T08:23:55.204Z,100462.80
2022-10-08T08:26:27.150Z,100462.39
2022-10-08T08:28:58.360Z,100466.00
2022-10-08T08:31:30.125Z,100460.17
2022-10-08T08:33:58.567Z,100461.60
2022-10-08T08:36:30.167Z,100460.90
2022-10-08T08:38:57.098Z,100457.20
2022-10-08T08:41:39.000Z,100458.38
2022-10-08T08:44:18.208Z,100453.80
2022-10-08T08:46:57.041Z,100454.23
2022-10-08T08:49:47.203Z,100452.42
2022-10-08T08:52:16.171Z,100446.94
2022-10-08T08:54:45.805Z,100446.77
2022-10-08T08:57:50.812Z,100437.89
2022-10-08T09:00:19.590Z,100435.59
2022-10-08T09:03:24.848Z,100429.27
2022-10-08T09:05:53.358Z,100425.95
2022-10-08T09:08:29.561Z,100425.16
2022-10-08T09:11:01.607Z,100420.09
2022-10-08T09:13:49.088Z,100421.20
2022-10-08T09:16:16.109Z,100420.61
2022-10-08T09:18:46.998Z,100412.88
2022-10-08T09:21:13.725Z,100412.23
2022-10-08T09:23:40.631Z,100405.39
2022-10-08T09:26:30.709Z,100402.58
2022-10-08T09:29:00.837Z,100393.27
2022-10-08T09:31:37.197Z,100394.95
2022-10-08T09:34:10.833Z,100395.05
2022-10-08T09:36:41.891Z,100391.12
2022-10-08T09:39:35.859Z,100388.05
2022-10-08T09:42:09.231Z,100381.20
2022-10-08T09:44:46.298Z,100382.40
2022-10-08T09:47:17.660Z,100380.77
2022-10-08T09:49:44.967Z,100380.30
2022-10-08T09:52:26.877Z,100377.80
2022-10-08T09:54:55.348Z,100369.90
2022-10-08T09:57:22.154Z,100369.67
2022-10-08T09:59:54.972Z,100363.76
2022-10-08T10:02:35.288Z,100364.98
2022-10-08T10:05:06.529Z,100360.14
2022-10-08T10:07:51.765Z,100357.50
2022-10-08T10:10:28.812Z,100353.13
2022-10-08T10:13:02.914Z,100353.41
2022-10-08T10:15:35.435Z,100349.46
2022-10-08T10:18:04.306Z,100341.71
2022-10-08T10:20:51.127Z,100332.81
2022-10-08T10:23:46.207Z,100328.19
2022-10-08T10:26:30.241Z,100321.05
2022-10-08T10:29:08.760Z,100320.73
2022-10-08T10:31:38.499Z,100311.66
2022-10-08T10:34:20.737Z,100311.56
2022-10-08T10:37:01.595Z,100306.41
2022-10-08T10:39:46.751Z,100303.09
2022-10-08T10:42:24.449Z,100300.95
2022-10-08T10:44:54.861Z,100294.81
2022-10-08T10:47:31.820Z,100292.49
2022-10-08T10:50:00.317Z,100288.64
2022-10-08T10:52:46.058Z,100285.63
2022-10-08T10:55:31.957Z,100277.98
2022-10-08T10:58:36.445Z,100280.67
2022-10-08T11:01:35.517Z,100279.51
2022-10-08T11:04:27.105Z,100270.43
2022-10-08T11:07:03.551Z,100267.13
2022-10-08T11:09:47.220Z,100262.80
2022-10-08T11:12:42.270Z,100257.93
2022-10-08T11:15:27.219Z,100253.09
2022-10-08T11:18:18.039Z,100248.30
2022-10-08T11:21:03.478Z,100241.77
2022-10-08T11:23:33.285Z,100237.31
2022-10-08T11:26:23.147Z,100238.02
2022-10-08T11:29:34.797Z,100232.70
2022-10-08T11:32:01.460Z,100225.10
2022-10-08T11:34:29.261Z,100216.14
2022-10-08T11:37:14.534Z,100214.38
2022-10-08T11:40:21.332Z,100214.81
2022-10-08T11:42:57.180Z,100218.66
2022-10-08T11:45:23.862Z,100214.15
2022-10-08T11:47:54.480Z,100211.73
2022-10-08T11:50:28.411Z,100205.23
2022-10-08T11:53:00.541Z,100201.11
2022-10-08T11:55:29.933Z,100196.66
2022-10-08T11:58:14.053Z,100198.87
2022-10-08T12:00:45.133Z,100194.48
2022-10-08T12:03:25.058Z,100192.36
2022-10-08T12:05:54.766Z,100190.70
2022-10-08T12:08:53.237Z,100192.63
2022-10-08T12:11:47.109Z,100186.47
2022-10-08T12:14:17.063Z,100187.02
2022-10-08T12:16:55.782Z,100186.58
2022-10-08T12:19:34.670Z,100183.94
2022-10-08T12:22:08.234Z,100180.27
2022-10-08T12:24:37.925Z,100173.45
2022-10-08T12:27:16.885Z,100167.77
2022-10-08T12:29:52.850Z,100168.21
2022-10-08T12:32:19.539Z,100168.38
2022-10-08T12:34:46.206Z,100167.66
2022-10-08T12:37:37.752Z,100168.27
2022-10-08T12:40:13.022Z,100163.27
2022-10-08T12:42:39.710Z,100161.77
2022-10-08T12:45:07.918Z,100162.60
2022-10-08T12:47:47.354Z,100161.83
2022-10-08T12:50:51.520Z,100161.01
2022-10-08T12:53:18.159Z,100156.66
2022-10-08T12:55:55.591Z,100158.30
2022-10-08T12:58:24.809Z,100155.84
2022-10-08T13:00:56.830Z,100151.77
2022-10-08T13:03:23.663Z,100148.08
2022-10-08T13:05:50.463Z,100144.45
2022-10-08T13:08:38.720Z,100144.15
2022-10-08T13:11:10.152Z,100140.69
2022-10-08T13:13:39.628Z,100134.52
2022-10-08T13:16:09.475Z,100131.12
2022-10-08T13:18:36.921Z,100129.02
2022-10-08T13:21:05.162Z,100126.61
2022-10-08T13:23:35.597Z,100127.88
2022-10-08T13:26:02.620Z,100120.34
2022-10-08T13:28:58.604Z,100119.13
2022-10-08T13:31:22.423Z,100117.15
2022-10-08T13:33:49.188Z,100117.59
2022-10-08T13:36:21.049Z,100111.09
2022-10-08T13:38:47.699Z,100110.65
2022-10-08T13:41:23.374Z,100105.59
2022-10-08T13:43:50.057Z,100102.78
2022-10-08T13:46:16.836Z,100096.79
2022-10-08T13:48:44.158Z,100095.64
2022-10-08T13:51:10.815Z,100092.34
2022-10-08T13:53:37.564Z,100086.23
2022-10-08T13:56:04.296Z,100085.85
2022-10-08T13:58:32.728Z,100087.16
2022-10-08T14:00:59.509Z,100085.36
2022-10-08T14:03:26.171Z,100083.34
2022-10-08T14:05:52.830Z,100079.42
2022-10-08T14:08:26.942Z,100076.13
2022-10-08T14:12:15.082Z,100073.15
2022-10-08T14:14:41.772Z,100071.80
2022-10-08T14:17:08.427Z,100071.29
2022-10-08T14:19:35.097Z,100070.20
2022-10-08T14:22:01.798Z,100064.72
2022-10-08T14:24:28.474Z,100067.42
2022-10-08T14:26:55.314Z,100066.80
2022-10-08T14:29:22.053Z,100062.74
2022-10-08T14:31:48.783Z,100060.29
2022-10-08T14:34:15.470Z,100059.66
2022-10-08T14:36:42.557Z,100059.33
2022-10-08T14:39:10.130Z,100057.71
2022-10-08T14:41:37.489Z,100055.79
2022-10-08T14:44:04.203Z,100055.26
2022-10-08T14:46:30.910Z,100055.09
2022-10-08T14:48:58.020Z,100051.76
2022-10-08T14:51:24.712Z,100048.98
2022-10-08T14:53:52.312Z,100044.52
2022-10-08T14:56:18.961Z,100048.92
2022-10-08T14:58:45.658Z,100040.30
2022-10-08T15:01:12.413Z,100040.75
2022-10-08T15:03:39.114Z,100041.36
2022-10-08T15:06:06.202Z,100041.81
2022-10-08T15:08:32.913Z,100044.11
2022-10-08T15:11:01.797Z,100045.34
2022-10-08T15:13:29.099Z,100045.88
2022-10-08T15:15:55.769Z,100042.31
2022-10-08T15:18:22.955Z,100044.79
2022-10-08T15:20:56.633Z,100042.75
2022-10-08T15:23:23.885Z,100042.70
2022-10-08T15:26:01.292Z,100042.98
2022-10-08T15:28:28.310Z,100048.23
2022-10-08T15:31:22.525Z,100050.85
2022-10-08T15:33:50.037Z,100049.30
2022-10-08T15:36:27.079Z,100050.44
2022-10-08T15:38:58.397Z,100048.08
2022-10-08T15:41:25.306Z,100048.98
2022-10-08T15:43:52.042Z,100048.83
2022-10-08T15:46:19.880Z,100049.70
2022-10-08T15:48:53.884Z,100052.60
2022-10-08T15:51:21.108Z,100056.16
2022-10-08T15:53:47.967Z,100055.98
2022-10-08T15:56:14.634Z,100051.74
2022-10-08T15:58:56.527Z,100048.77
2022-10-08T16:01:23.547Z,100047.98
2022-10-08T16:03:52.101Z,100045.48
2022-10-08T16:06:20.793Z,100045.84
2022-10-08T16:08:47.534Z,100047.14
2022-10-08T16:11:15.394Z,100048.87
2022-10-08T16:13:43.030Z,100046.02
2022-10-08T16:16:14.790Z,100046.66
2022-10-08T16:18:42.077Z,100048.12
2022-10-08T16:21:09.812Z,100046.23
2022-10-08T16:23:37.470Z,100048.64
2022-10-08T16:26:05.767Z,100046.43
2022-10-08T16:28:33.734Z,100049.15
2022-10-08T16:31:00.533Z,100048.48
2022-10-08T16:33:27.344Z,100046.81
2022-10-08T16:35:54.413Z,100050.27
2022-10-08T16:38:21.150Z,100051.79
2022-10-08T16:40:47.854Z,100049.06
2022-10-08T16:43:14.559Z,100045.30
2022-10-08T16:45:41.315Z,100046.56
2022-10-08T16:48:10.897Z,100045.77
2022-10-08T16:50:39.118Z,100047.29
2022-10-08T16:53:08.602Z,100044.43
2022-10-08T16:55:36.420Z,100042.52
2022-10-08T16:58:03.287Z,100042.10
2022-10-08T17:00:30.125Z,100036.76
2022-10-08T17:02:56.843Z,100040.89
2022-10-08T17:05:23.755Z,100039.02
2022-10-08T17:07:50.449Z,100038.35
2022-10-08T17:10:17.228Z,100040.94
2022-10-08T17:12:43.944Z,100042.16
2022-10-08T17:15:10.838Z,100041.34
2022-10-08T17:17:37.554Z,100036.90
2022-10-08T17:20:04.531Z,100036.54
2022-10-08T17:22:31.215Z,100035.41
2022-10-08T17:24:57.828Z,100033.07
2022-10-08T17:27:24.570Z,100030.84
2022-10-08T17:29:51.177Z,100027.98
2022-10-08T17:32:17.839Z,100025.85
2022-10-08T17:34:44.451Z,100027.98
2022-10-08T17:37:11.118Z,100028.77
2022-10-08T17:39:37.694Z,100032.57
2022-10-08T17:42:07.169Z,100035.42
2022-10-08T17:44:34.561Z,100034.23
2022-10-08T17:47:01.253Z,100035.52
2022-10-08T17:49:28.491Z,100033.46
2022-10-08T17:51:55.481Z,100033.17
2022-10-08T17:54:22.672Z,100038.15
2022-10-08T17:56:49.645Z,100033.24
2022-10-08T17:59:17.465Z,100031.62
2022-10-08T18:01:45.486Z,100032.95
2022-10-08T18:04:13.635Z,100033.77
2022-10-08T18:06:40.985Z,100034.42
2022-10-08T18:09:10.703Z,100033.48
2022-10-08T18:11:38.633Z,100039.61
2022-10-08T18:14:05.624Z,100041.75
2022-10-08T18:16:32.342Z,100036.24
2022-10-08T18:18:59.132Z,100037.73
2022-10-08T18:21:25.868Z,100039.24
2022-10-08T18:23:52.500Z,100039.75
2022-10-08T18:26:23.771Z,100040.69
2022-10-08T18:28:54.596Z,100035.69
2022-10-08T18:31:22.729Z,100037.52
2022-10-08T18:33:51.088Z,100036.09
2022-10-08T18:36:22.514Z,100041.34
2022-10-08T18:38:53.934Z,100037.13
2022-10-08T18:41:22.434Z,100039.31
2022-10-08T18:43:49.447Z,100036.76
2022-10-08T18:46:18.416Z,100039.10
2022-10-08T18:48:45.264Z,100041.13
2022-10-08T18:51:12.847Z,100044.21
2022-10-08T18:53:41.046Z,100045.46
2022-10-08T18:56:10.354Z,100047.14
2022-10-08T18:58:38.125Z,100042.17
2022-10-08T19:01:05.472Z,100046.38
2022-10-08T19:03:32.216Z,100042.77
2022-10-08T19:05:58.866Z,100045.60
2022-10-08T19:08:25.682Z,100045.18
2022-10-08T19:10:52.614Z,100041.98
2022-10-08T19:13:20.018Z,100044.58
2022-10-08T19:15:46.890Z,100047.11
2022-10-08T19:18:13.627Z,100048.79
2022-10-08T19:20:40.182Z,100051.80
2022-10-08T19:23:06.840Z,100051.03
2022-10-08T19:25:34.692Z,100051.13
2022-10-08T19:28:04.444Z,100051.50
2022-10-08T19:30:34.127Z,100051.96
2022-10-08T19:33:01.187Z,100052.39
2022-10-08T19:35:27.989Z,100053.98
2022-10-08T19:37:54.586Z,100050.71
2022-10-08T19:40:21.447Z,100045.85
2022-10-08T19:42:51.192Z,100047.31
2022-10-08T19:45:18.159Z,100048.24
2022-10-08T19:47:44.782Z,100048.96
2022-10-08T19:50:11.466Z,100052.50
2022-10-08T19:52:38.065Z,100051.10
2022-10-08T19:55:05.289Z,100047.73
2022-10-08T19:57:31.922Z,100041.64
2022-10-08T19:59:58.562Z,100044.09
2022-10-08T20:02:25.642Z,100044.88
2022-10-08T20:04:52.371Z,100045.23
2022-10-08T20:07:18.983Z,100045.98
2022-10-08T20:09:45.651Z,100050.38
2022-10-08T20:12:12.364Z,100050.07
2022-10-08T20:14:38.949Z,100046.22
2022-10-08T20:17:05.642Z,100048.33
2022-10-08T20:19:32.401Z,100047.82
2022-10-08T20:21:58.960Z,100045.48
2022-10-08T20:24:25.672Z,100047.05
2022-10-08T20:26:52.375Z,100042.95
2022-10-08T20:29:20.052Z,100038.60
2022-10-08T20:31:54.036Z,100037.83
2022-10-08T20:34:27.088Z,100034.96
2022-10-08T20:36:53.985Z,100030.65
2022-10-08T20:39:21.012Z,100032.30
2022-10-08T20:41:47.815Z,100030.20
2022-10-08T20:44:14.560Z,100026.62
2022-10-08T20:46:41.439Z,100024.88
2022-10-08T20:49:09.796Z,100023.40
2022-10-08T20:51:38.399Z,100024.91
2022-10-08T20:54:07.338Z,100025.02
2022-10-08T20:56:39.177Z,100021.12
2022-10-08T20:59:06.502Z,100020.70
2022-10-08T21:01:36.695Z,100019.91
2022-10-08T21:04:06.996Z,100018.45
2022-10-08T21:06:41.594Z,100015.47
2022-10-08T21:09:08.371Z,100009.13
2022-10-08T21:11:35.270Z,100007.95
2022-10-08T21:14:03.657Z,100005.92
2022-10-08T21:16:38.436Z,100007.73
2022-10-08T21:19:06.822Z,100010.34
2022-10-08T21:21:33.999Z,100010.58
2022-10-08T21:24:00.739Z,100008.67
2022-10-08T21:26:28.165Z,100012.88
2022-10-08T21:28:57.529Z,100012.33
2022-10-08T21:31:24.388Z,100007.79
2022-10-08T21:33:51.820Z,100007.98
2022-10-08T21:36:20.766Z,100006.01
2022-10-08T21:38:47.528Z,100007.87
2022-10-08T21:41:14.788Z,100006.48
2022-10-08T21:43:43.426Z,100004.29
2022-10-08T21:46:11.428Z,100002.42
2022-10-08T21:48:38.190Z,100006.14
2022-10-08T21:51:09.097Z,100001.34
2022-10-08T21:53:36.760Z,99989.49
2022-10-08T21:56:05.234Z,99988.83
2022-10-08T21:58:35.838Z,99988.10
2022-10-08T22:01:02.632Z,99988.54
2022-10-08T22:03:29.342Z,99990.24
2022-10-08T22:06:01.575Z,99990.98
2022-10-08T22:08:29.101Z,99987.24
2022-10-08T22:10:55.854Z,99990.88
2022-10-08T22:13:22.750Z,99989.95
2022-10-08T22:15:54.063Z,99984.94
2022-10-08T22:18:21.159Z,99984.55
2022-10-08T22:20:47.854Z,99980.16
2022-10-08T22:23:14.660Z,99978.12
2022-10-08T22:25:41.304Z,99977.49
2022-10-08T22:28:08.025Z,99972.88
2022-10-08T22:30:35.932Z,99976.61
2022-10-08T22:33:03.294Z,99967.19
2022-10-08T22:35:33.494Z,99971.64
2022-10-08T22:38:00.424Z,99969.56
2022-10-08T22:40:27.404Z,99969.90
2022-10-08T22:42:54.034Z,99969.86
2022-10-08T22:45:20.772Z,99968.45
2022-10-08T22:47:47.415Z,99967.20
2022-10-08T22:50:14.354Z,99970.77
2022-10-08T22:52:41.077Z,99965.14
2022-10-08T22:55:08.086Z,99970.71
2022-10-08T22:57:34.728Z,99972.42
2022-10-08T23:00:01.454Z,99970.53
2022-10-08T23:02:28.218Z,99963.31
2022-10-08T23:04:54.821Z,99959.11
2022-10-08T23:07:21.509Z,99958.13
2022-10-08T23:09:48.164Z,99954.33
2022-10-08T23:12:14.818Z,99955.71
2022-10-08T23:14:41.494Z,99953.70
2022-10-08T23:17:08.208Z,99954.34
2022-10-08T23:19:34.799Z,99956.94
2022-10-08T23:22:01.493Z,99958.94
2022-10-08T23:24:29.301Z,99957.80
2022-10-08T23:26:56.040Z,99955.71
2022-10-08T23:29:22.671Z,99953.11
2022-10-08T23:31:49.358Z,99949.14
2022-10-08T23:34:15.971Z,99944.50
2022-10-08T23:36:42.919Z,99942.27
2022-10-08T23:39:12.278Z,99935.13
2022-10-08T23:41:38.953Z,99936.94
2022-10-08T23:44:05.722Z,99937.48
2022-10-08T23:46:32.355Z,99935.75
2022-10-08T23:48:59.509Z,99935.98
2022-10-08T23:51:28.131Z,99933.34
2022-10-08T23:53:54.874Z,99934.84
2022-10-08T23:56:21.708Z,99931.71
2022-10-08T23:58:48.658Z,99927.13
